Cambria, WI

12:29 PM CST on December 04, 2016 (GMT -0600)
APRSWXNET | | Change Station
Active Advisory: Winter Weather Advisory

Elev 944 ft 43.54 °N, 89.11 °W | Updated 29 minutes ago

Light Snow
Light Snow
31.0 °F
Feels Like 25 °F
N
6.0
Wind Variable Wind from SSE
Gusts 0.0 mph

Today
High -- | Low -- °F
--% Chance of Precip.
Yesterday
High -- | Low -- °F
Precip. -- in
Pressure 29.98 in
Visibility 1.2 miles
Clouds Mostly Cloudy 600 ft
Overcast 1600 ft
Windchill 25 °F
Dew Point 28.0 °F
Humidity 88%
Rainfall in
Snow Depth Not available.
7:13 AM 4:20 PM
Waxing Crescent, 24% visible
METAR KUNU 041815Z AUTO 13010KT 1 1/4SM -SN BKN006 OVC016 M01/M02 A2998 RMK AO2 T10101017
Pressure 29.98 in
Visibility 1.2 miles
Clouds Mostly Cloudy 600 ft
Overcast 1600 ft
Windchill 25 °F
Dew Point 28.0 °F
Humidity 88%
Rainfall in
Snow Depth Not available.
7:13 AM 4:20 PM
Waxing Crescent, 24% visible
METAR KUNU 041815Z AUTO 13010KT 1 1/4SM -SN BKN006 OVC016 M01/M02 A2998 RMK AO2 T10101017

10-Day Weather Forecast

Almanac

Astronomy

Dec. 04, 2016 Rise Set
Actual Time
Civil Twilight
Nautical Twilight
Astronomical Twilight
Moon
Length of Visible Light
Length of Day
Tomorrow will be .
, % of the Moon is Illuminated

Today's Extremes

State Highs State Lows

Community

WunderPhotos

Upload Photos

1,955,639 photos uploaded!

WunderBlog® & News

Nearby

Air Quality

  Air Quality AQ Index Pollutant
Not available.

Snow Depth

Station Depth Elevation

Earthquake Activity

City Distance Mag. Time & Date
Minimum magnitude displayed is 2.5.

Coastal Water Temperatures

Place Temperature

Stations

Nearby Weather Stations

Station Location Temp. Windchill Dew Point Humidity Wind Precip. Elev Updated Type
                   

Watches & Warnings

Winter Weather Advisory
Issued: 12:00 PM CST Dec. 4, 2016 – National Weather Service

... Winter Weather Advisory remains in effect until 6 PM CST this
evening...

A Winter Weather Advisory remains in effect until 6 PM CST this
evening.

* Timing... snow... tapering off in the mid to late afternoon.

* Snow accumulations... additional amounts of 1 to 2 inches for a
total of 3 to 5 inches. Far southern WI will have the highest
amounts.

* Winds... south to southeast at 10 to 15 mph.

* Impacts... reduced visibility and slippery spots on untreated
roads creating hazardous travel.

Precautionary/preparedness actions...

A Winter Weather Advisory for snow means that periods of snow
will cause primarily travel difficulties. Be prepared for snow
covered roads and limited visibilities... and use caution while
driving.